Newton Falls, Ohio
Current Conditions -  °F | °C
As of 6:00 PM on Thursday 27 Nov 2014 (Local Time) from KPOV Reporting Station
Light Snow Light Snow  
Wind Chill: 21°   Ceiling: 1000
Heat Index: 28°   Visibility: 5mi
Dew Point: 28°   Wind: 7mph
Humidity: 96%   Direction: 250°WSW
Pressure: 30.16"   Gusts: NA
Location:  41.19°N, 80.98°W
Report Text: KPOV 272300Z AUTO 25006KT 5SM -SN BKN010 BKN025 OVC031 M02/M02 A3016 RMK AO2 T10201025
Loading
Personal Weather Stations






























Interactive Weather Map New forecast layout! Learn more

10-Day Weather Forecast

Advertisements
Track Severe Weather on mobile